Time;durP1;ratioP1;P1;durP2;ratioP2;P2;SDS_P1;SDS_P2;PMS_P1;PMS_P2;Temp;Humidity;BMP_temperature;BMP_pressure;BME280_temperature;BME280_humidity;BME280_pressure;Samples;Min_cycle;Max_cycle;Signal;HPM_P1;HPM_P2
2023/02/05 00:01:42;;;;;;;36.97;15.98;;;28.00;71.80;;;;;;5086845;28;20038;-59
2023/02/05 00:04:08;;;;;;;36.78;16.17;;;28.00;72.00;;;;;;5087133;28;20040;-60
2023/02/05 00:06:35;;;;;;;33.85;15.40;;;28.00;71.80;;;;;;5086883;28;20052;-60
2023/02/05 00:09:01;;;;;;;33.83;15.02;;;28.00;71.70;;;;;;5086183;28;20025;-59
2023/02/05 00:11:28;;;;;;;32.00;15.25;;;28.10;72.10;;;;;;5085248;28;20028;-61
2023/02/05 00:13:55;;;;;;;33.53;14.10;;;28.20;71.40;;;;;;5086990;28;20052;-58
2023/02/05 00:16:23;;;;;;;33.25;14.25;;;28.20;71.30;;;;;;5085880;28;20029;-59
2023/02/05 00:18:51;;;;;;;23.67;13.55;;;28.20;71.20;;;;;;5086974;28;20208;-58
2023/02/05 00:21:19;;;;;;;29.83;14.15;;;28.20;71.10;;;;;;5085410;28;20074;-58
2023/02/05 00:23:46;;;;;;;21.92;12.35;;;28.30;70.90;;;;;;5086436;28;20029;-59
2023/02/05 00:26:13;;;;;;;27.55;12.50;;;28.30;70.90;;;;;;5086448;28;20096;-58
2023/02/05 00:28:40;;;;;;;22.10;11.98;;;28.30;70.70;;;;;;5086706;28;20036;-56
2023/02/05 00:31:10;;;;;;;17.77;11.70;;;28.30;71.10;;;;;;5086121;28;20044;-59
2023/02/05 00:33:38;;;;;;;22.05;11.20;;;28.30;70.50;;;;;;5086369;28;20017;-60
2023/02/05 00:36:05;;;;;;;24.33;12.70;;;28.30;70.30;;;;;;5086270;28;20037;-58
2023/02/05 00:38:32;;;;;;;57.70;14.55;;;28.30;70.20;;;;;;5086327;28;20098;-59
2023/02/05 00:40:59;;;;;;;25.15;12.77;;;28.30;70.10;;;;;;5086208;28;20078;-59
2023/02/05 00:43:25;;;;;;;68.28;13.73;;;28.30;70.00;;;;;;5084745;28;20109;-62
2023/02/05 00:45:52;;;;;;;35.85;11.82;;;28.30;69.80;;;;;;5085691;28;20316;-62
2023/02/05 00:48:18;;;;;;;38.90;11.30;;;28.10;70.00;;;;;;5085686;28;20039;-63
2023/02/05 00:50:47;;;;;;;25.30;10.75;;;28.00;70.20;;;;;;5085813;28;20024;-59
2023/02/05 00:53:14;;;;;;;51.00;12.30;;;27.90;70.60;;;;;;5085700;28;20028;-59
2023/02/05 00:55:40;;;;;;;27.67;10.38;;;27.80;70.80;;;;;;5086033;28;20016;-58
2023/02/05 00:58:07;;;;;;;26.33;11.13;;;27.70;70.80;;;;;;5085929;28;20087;-58
2023/02/05 01:00:34;;;;;;;32.10;11.15;;;27.70;71.00;;;;;;5085604;28;20320;-57
2023/02/05 01:03:01;;;;;;;27.73;10.60;;;27.70;70.80;;;;;;5085738;28;20285;-57
2023/02/05 01:05:32;;;;;;;19.83;10.35;;;27.80;70.60;;;;;;5085737;28;20039;-57
2023/02/05 01:07:58;;;;;;;20.05;9.85;;;27.90;70.50;;;;;;5085528;28;20264;-58
2023/02/05 01:10:25;;;;;;;19.55;9.52;;;27.90;70.50;;;;;;5085570;28;20028;-57
2023/02/05 01:12:52;;;;;;;16.33;9.82;;;27.90;70.00;;;;;;5085509;28;20028;-56
2023/02/05 01:15:19;;;;;;;22.13;9.70;;;28.00;69.90;;;;;;5086145;28;20138;-59
2023/02/05 01:17:46;;;;;;;17.98;9.85;;;28.00;69.70;;;;;;5085542;28;20126;-58
2023/02/05 01:20:14;;;;;;;17.17;9.73;;;28.00;69.60;;;;;;5086096;28;20024;-57
2023/02/05 01:22:41;;;;;;;15.75;9.35;;;28.00;69.40;;;;;;5085369;28;20325;-57
2023/02/05 01:25:09;;;;;;;22.17;10.52;;;28.00;69.40;;;;;;5086141;28;20033;-57
2023/02/05 01:27:36;;;;;;;16.10;9.50;;;28.10;69.20;;;;;;5085254;28;20055;-56
2023/02/05 01:30:05;;;;;;;21.45;9.85;;;28.10;69.10;;;;;;5085660;28;20032;-54
2023/02/05 01:32:32;;;;;;;14.40;9.63;;;28.00;69.00;;;;;;5084730;28;20035;-56
2023/02/05 01:34:58;;;;;;;17.08;9.57;;;28.10;69.00;;;;;;5085557;28;20025;-57
2023/02/05 01:37:25;;;;;;;15.43;10.18;;;28.10;68.90;;;;;;5085151;28;20090;-56
2023/02/05 01:39:51;;;;;;;17.42;10.45;;;28.10;68.80;;;;;;5085919;28;20032;-55
2023/02/05 01:42:23;;;;;;;23.50;10.80;;;28.10;68.70;;;;;;5085333;28;20056;-56
2023/02/05 01:45:28;;;;;;;16.83;10.88;;;28.10;68.60;;;;;;5084755;28;20047;-57
2023/02/05 01:48:03;;;;;;;20.13;10.05;;;28.00;68.40;;;;;;5084709;28;20041;-64
2023/02/05 01:50:34;;;;;;;18.55;10.70;;;28.00;68.40;;;;;;5084834;28;20032;-58
2023/02/05 01:53:08;;;;;;;22.55;10.02;;;28.10;68.50;;;;;;5084844;28;20029;-61
2023/02/05 01:55:43;;;;;;;27.33;10.05;;;28.10;68.30;;;;;;5084608;28;20091;-56
2023/02/05 01:58:11;;;;;;;25.52;9.75;;;28.00;68.20;;;;;;5084557;28;20269;-56
2023/02/05 02:00:38;;;;;;;20.02;10.00;;;28.00;68.20;;;;;;5084462;28;20043;-55
2023/02/05 02:03:05;;;;;;;17.00;9.20;;;28.00;68.20;;;;;;5083393;28;20036;-56
2023/02/05 02:05:31;;;;;;;17.10;9.40;;;28.00;68.00;;;;;;5084403;28;20029;-55
2023/02/05 02:07:58;;;;;;;19.08;9.95;;;28.00;68.00;;;;;;5084283;28;20367;-59
2023/02/05 02:10:25;;;;;;;16.65;9.68;;;28.00;67.90;;;;;;5084322;28;20028;-55
2023/02/05 02:12:52;;;;;;;15.40;9.65;;;28.00;67.80;;;;;;5084529;28;20036;-61
2023/02/05 02:15:22;;;;;;;14.93;9.23;;;28.00;67.80;;;;;;5084763;28;20084;-61
2023/02/05 02:17:55;;;;;;;15.52;9.60;;;28.00;67.50;;;;;;5084336;28;20104;-55
2023/02/05 02:20:22;;;;;;;;;;;28.00;67.30;;;;;;5085118;28;20051;-58
2023/02/05 02:22:55;;;;;;;14.18;8.63;;;28.00;67.20;;;;;;5084283;28;20118;-58
2023/02/05 02:25:50;;;;;;;15.43;9.32;;;28.00;67.30;;;;;;5084820;28;20035;-55
2023/02/05 02:28:34;;;;;;;17.05;9.20;;;28.00;67.00;;;;;;5083986;28;20100;-57
2023/02/05 02:31:10;;;;;;;11.95;8.85;;;27.90;67.00;;;;;;5084051;28;20321;-57
2023/02/05 02:33:50;;;;;;;13.93;9.13;;;28.00;66.90;;;;;;5084400;28;20024;-56
2023/02/05 02:36:27;;;;;;;14.68;9.25;;;28.00;66.80;;;;;;5084189;28;20078;-56
2023/02/05 02:38:59;;;;;;;12.95;9.43;;;27.90;66.80;;;;;;5084443;28;20150;-57
2023/02/05 02:42:00;;;;;;;13.20;9.40;;;28.00;66.70;;;;;;5084006;28;20058;-56
2023/02/05 02:44:36;;;;;;;10.40;8.73;;;28.00;66.50;;;;;;5080617;28;20068;-57
2023/02/05 02:47:31;;;;;;;13.40;9.70;;;27.90;66.40;;;;;;5065696;28;20043;-61
2023/02/05 02:50:16;;;;;;;13.48;9.55;;;27.90;66.40;;;;;;5080645;28;20016;-55
2023/02/05 02:52:46;;;;;;;12.88;9.20;;;27.90;66.40;;;;;;5081555;28;20032;-58
2023/02/05 02:55:15;;;;;;;13.13;9.27;;;27.90;66.40;;;;;;5078283;28;20209;-57
2023/02/05 02:57:46;;;;;;;12.15;9.38;;;27.90;66.30;;;;;;5072597;28;20321;-61
2023/02/05 03:00:19;;;;;;;16.00;9.35;;;27.90;66.30;;;;;;5063970;28;20100;-61
2023/02/05 03:02:48;;;;;;;18.75;9.88;;;27.90;66.20;;;;;;5072490;28;20099;-61
2023/02/05 03:05:17;;;;;;;14.05;9.10;;;27.90;66.10;;;;;;5066269;28;20366;-61
2023/02/05 03:08:08;;;;;;;11.35;9.18;;;27.90;66.20;;;;;;5063609;28;20037;-60
2023/02/05 03:10:43;;;;;;;10.88;9.30;;;27.90;66.70;;;;;;5073121;28;20071;-59
2023/02/05 03:13:11;;;;;;;11.73;10.07;;;27.90;66.00;;;;;;5069060;28;20062;-59
2023/02/05 03:15:42;;;;;;;12.15;9.50;;;27.90;66.00;;;;;;5063182;28;20024;-61
2023/02/05 03:18:10;;;;;;;14.52;8.57;;;27.90;65.90;;;;;;5063582;28;20077;-61
2023/02/05 03:20:56;;;;;;;16.15;8.95;;;27.90;65.90;;;;;;5063424;28;20100;-67
2023/02/05 03:23:23;;;;;;;11.25;9.18;;;27.90;65.80;;;;;;5063621;28;20028;-63
2023/02/05 03:25:50;;;;;;;20.95;8.98;;;27.90;65.80;;;;;;5063410;28;20213;-60
2023/02/05 03:28:17;;;;;;;16.55;9.15;;;27.90;65.80;;;;;;5063312;28;20029;-59
2023/02/05 03:30:52;;;;;;;14.02;8.85;;;27.90;65.90;;;;;;5072145;28;20055;-60
2023/02/05 03:33:42;;;;;;;12.13;9.02;;;27.90;66.10;;;;;;5083344;28;20370;-60
2023/02/05 03:36:57;;;;;;;18.13;9.07;;;27.80;66.10;;;;;;5071507;28;20036;-61
2023/02/05 03:39:27;;;;;;;17.33;8.73;;;27.80;66.10;;;;;;5023070;28;20035;-57
2023/02/05 03:42:09;;;;;;;20.25;9.27;;;27.80;66.20;;;;;;5083582;28;20074;-61
2023/02/05 03:45:19;;;;;;;15.20;8.65;;;27.80;66.20;;;;;;5082808;28;20041;-63
2023/02/05 03:47:51;;;;;;;17.15;9.05;;;27.80;66.20;;;;;;5078771;28;20049;-58
2023/02/05 03:50:22;;;;;;;15.48;8.63;;;27.80;66.20;;;;;;5074923;28;20024;-60
2023/02/05 03:52:56;;;;;;;14.70;8.85;;;27.80;66.30;;;;;;5076046;28;20040;-60
2023/02/05 03:55:30;;;;;;;16.33;9.23;;;27.80;66.30;;;;;;5076392;28;20031;-60
2023/02/05 03:58:25;;;;;;;11.15;8.30;;;27.80;66.30;;;;;;5087040;28;20032;-61
2023/02/05 04:00:52;;;;;;;14.93;8.30;;;27.80;66.40;;;;;;5069472;28;20333;-58
2023/02/05 04:03:18;;;;;;;31.85;10.00;;;27.80;66.60;;;;;;5080885;28;20028;-58
2023/02/05 04:05:45;;;;;;;34.30;9.80;;;27.80;66.70;;;;;;5083454;28;20077;-58
2023/02/05 04:08:12;;;;;;;20.35;8.63;;;27.80;66.80;;;;;;5066702;28;20048;-61
2023/02/05 04:10:38;;;;;;;17.83;8.93;;;27.80;67.00;;;;;;5066657;28;20063;-59
2023/02/05 04:13:05;;;;;;;18.83;9.40;;;27.80;67.20;;;;;;5066585;28;20025;-59
2023/02/05 04:15:31;;;;;;;17.30;9.40;;;27.80;67.30;;;;;;5066289;28;20222;-59
2023/02/05 04:17:58;;;;;;;22.90;9.85;;;27.80;67.40;;;;;;5079099;28;20316;-58
2023/02/05 04:20:25;;;;;;;16.42;10.05;;;27.80;67.50;;;;;;5078151;28;20311;-55
2023/02/05 04:22:51;;;;;;;13.60;9.75;;;27.80;67.80;;;;;;5076899;28;20051;-58
2023/02/05 04:25:19;;;;;;;14.32;9.70;;;27.80;67.90;;;;;;5077031;28;20103;-57
2023/02/05 04:27:46;;;;;;;14.45;9.35;;;27.80;67.90;;;;;;5074991;28;20071;-56
2023/02/05 04:30:12;;;;;;;15.75;10.52;;;27.80;68.10;;;;;;5068701;28;20082;-57
2023/02/05 04:32:39;;;;;;;12.20;10.25;;;27.80;68.50;;;;;;5071725;28;20343;-58
2023/02/05 04:35:06;;;;;;;12.25;10.98;;;27.80;68.80;;;;;;5077417;28;20312;-57
2023/02/05 04:37:32;;;;;;;12.88;10.48;;;27.80;69.10;;;;;;5075729;28;20017;-55
2023/02/05 04:39:59;;;;;;;12.35;11.07;;;27.70;69.70;;;;;;5077553;28;20309;-57
2023/02/05 04:42:25;;;;;;;13.13;10.27;;;27.70;70.30;;;;;;5086254;28;20024;-56
2023/02/05 04:44:53;;;;;;;13.80;10.10;;;27.70;70.50;;;;;;5085591;28;20095;-57
2023/02/05 04:47:19;;;;;;;15.27;10.68;;;27.70;71.00;;;;;;5085680;28;20043;-60
2023/02/05 04:49:46;;;;;;;13.25;10.00;;;27.70;71.10;;;;;;5067064;28;20020;-58
2023/02/05 04:52:13;;;;;;;11.63;10.23;;;27.70;71.30;;;;;;5074183;28;20091;-57
2023/02/05 04:54:39;;;;;;;10.50;9.50;;;27.70;71.30;;;;;;5083112;28;20013;-58
2023/02/05 04:57:06;;;;;;;10.60;9.52;;;27.70;71.40;;;;;;5065896;28;20213;-57
2023/02/05 04:59:32;;;;;;;11.48;10.23;;;27.70;71.40;;;;;;5066151;28;20032;-63
2023/02/05 05:01:59;;;;;;;10.75;9.65;;;27.70;71.30;;;;;;5065804;28;20064;-60
2023/02/05 05:04:26;;;;;;;14.23;10.40;;;27.70;71.20;;;;;;5081238;28;20028;-61
2023/02/05 05:06:53;;;;;;;12.48;9.25;;;27.70;71.20;;;;;;5085159;28;20020;-58
2023/02/05 05:09:22;;;;;;;11.13;9.25;;;27.70;71.20;;;;;;5085902;28;20315;-59
2023/02/05 05:11:53;;;;;;;12.48;9.38;;;27.70;71.20;;;;;;5085836;28;20056;-58
2023/02/05 05:14:20;;;;;;;14.52;9.73;;;27.70;71.10;;;;;;5085838;28;20030;-57
2023/02/05 05:16:47;;;;;;;10.40;9.30;;;27.70;71.10;;;;;;5085659;28;20400;-59
2023/02/05 05:19:13;;;;;;;14.63;9.85;;;27.70;71.10;;;;;;5074101;28;20029;-56
2023/02/05 05:21:40;;;;;;;12.18;9.52;;;27.70;71.10;;;;;;5079071;28;20035;-59
2023/02/05 05:24:07;;;;;;;10.20;9.30;;;27.70;71.10;;;;;;5065470;28;20233;-57
2023/02/05 05:26:33;;;;;;;10.52;9.23;;;27.70;71.20;;;;;;5080702;28;20025;-60
2023/02/05 05:29:00;;;;;;;15.63;9.98;;;27.70;71.20;;;;;;5085319;28;20201;-58
2023/02/05 05:31:27;;;;;;;12.05;9.82;;;27.70;71.20;;;;;;5085248;28;20212;-59
2023/02/05 05:33:53;;;;;;;12.75;9.45;;;27.70;71.40;;;;;;5085364;28;20025;-61
2023/02/05 05:36:21;;;;;;;13.77;9.57;;;27.70;71.40;;;;;;5085109;28;20028;-60
2023/02/05 05:38:48;;;;;;;13.15;8.95;;;27.70;71.60;;;;;;5069553;28;20036;-61
2023/02/05 05:44:08;;;;;;;16.88;9.43;;;27.70;71.70;;;;;;5064979;28;20055;-60
2023/02/05 05:46:35;;;;;;;15.85;9.98;;;27.70;71.90;;;;;;5065017;28;20040;-61
2023/02/05 05:49:02;;;;;;;16.35;9.18;;;27.70;72.10;;;;;;5064911;28;20375;-60
2023/02/05 05:51:31;;;;;;;13.32;9.50;;;27.70;72.20;;;;;;5064991;28;20264;-59
2023/02/05 05:53:58;;;;;;;18.65;9.48;;;27.70;72.40;;;;;;5065554;28;20028;-60
2023/02/05 05:56:24;;;;;;;13.18;9.57;;;27.70;72.50;;;;;;5084604;28;20179;-59
2023/02/05 05:58:51;;;;;;;12.02;9.57;;;27.70;72.60;;;;;;5085024;28;20032;-60
2023/02/05 06:01:19;;;;;;;12.90;9.48;;;27.70;72.70;;;;;;5084832;28;20032;-59
2023/02/05 06:03:45;;;;;;;14.30;9.60;;;27.70;72.80;;;;;;5084578;28;20028;-59
2023/02/05 06:06:12;;;;;;;11.48;8.82;;;27.60;72.70;;;;;;5083547;28;20105;-58
2023/02/05 06:08:39;;;;;;;13.95;8.60;;;27.60;72.70;;;;;;5070310;28;20048;-59
2023/02/05 06:11:06;;;;;;;10.65;9.18;;;27.70;72.90;;;;;;5064439;28;20071;-60
2023/02/05 06:13:33;;;;;;;10.13;8.77;;;27.70;73.00;;;;;;5064460;28;20021;-58
2023/02/05 06:16:00;;;;;;;13.07;9.32;;;27.60;73.00;;;;;;5064375;28;20325;-63
2023/02/05 06:18:26;;;;;;;12.77;8.90;;;27.70;73.10;;;;;;5064353;28;20036;-64
2023/02/05 06:20:53;;;;;;;12.85;9.00;;;27.60;73.00;;;;;;5064529;28;20100;-58
2023/02/05 06:23:19;;;;;;;12.93;9.02;;;27.60;73.00;;;;;;5064486;28;20132;-59
2023/02/05 06:25:46;;;;;;;12.32;9.25;;;27.60;73.00;;;;;;5064171;28;20280;-58
2023/02/05 06:28:13;;;;;;;15.88;9.50;;;27.60;72.90;;;;;;5064161;28;20084;-58
2023/02/05 06:30:39;;;;;;;10.40;8.77;;;27.60;72.80;;;;;;5064292;28;20079;-58
2023/02/05 06:33:06;;;;;;;10.60;8.88;;;27.60;72.80;;;;;;5063952;28;20374;-59
2023/02/05 06:35:33;;;;;;;12.73;9.15;;;27.60;72.80;;;;;;5064397;28;20092;-59
2023/02/05 06:37:59;;;;;;;10.10;8.98;;;27.50;72.70;;;;;;5064058;28;20190;-58
2023/02/05 06:40:27;;;;;;;11.57;9.70;;;27.60;72.80;;;;;;5063876;28;20100;-58
2023/02/05 06:42:53;;;;;;;13.30;9.20;;;27.60;72.80;;;;;;5063999;28;20036;-59
2023/02/05 06:45:20;;;;;;;11.63;9.05;;;27.50;72.60;;;;;;5063770;28;20344;-61
2023/02/05 06:47:47;;;;;;;10.05;9.05;;;27.50;72.50;;;;;;5063745;28;20087;-57
2023/02/05 06:50:14;;;;;;;10.88;8.93;;;27.50;72.50;;;;;;5064461;28;20028;-61
2023/02/05 06:52:40;;;;;;;12.18;9.15;;;27.60;72.50;;;;;;5063979;28;20035;-59
2023/02/05 06:55:07;;;;;;;12.48;8.57;;;27.50;72.30;;;;;;5064231;28;20369;-58
2023/02/05 06:57:34;;;;;;;12.20;9.32;;;27.50;72.30;;;;;;5064109;28;20041;-61
2023/02/05 07:00:00;;;;;;;19.33;9.60;;;27.50;72.30;;;;;;5064448;28;20021;-60
2023/02/05 07:02:27;;;;;;;14.93;9.63;;;27.50;72.40;;;;;;5063728;28;20048;-61
2023/02/05 07:04:54;;;;;;;12.63;9.57;;;27.50;72.40;;;;;;5064131;28;20028;-60
2023/02/05 07:07:20;;;;;;;12.35;9.80;;;27.50;72.40;;;;;;5063767;28;20036;-59
2023/02/05 07:09:47;;;;;;;13.23;9.77;;;27.50;72.40;;;;;;5063593;28;20090;-60
2023/02/05 07:12:13;;;;;;;12.68;9.55;;;27.50;72.30;;;;;;5063650;28;20082;-60
2023/02/05 07:14:40;;;;;;;12.32;9.45;;;27.50;72.30;;;;;;5063800;28;20020;-57
2023/02/05 07:17:08;;;;;;;13.48;8.80;;;27.50;72.70;;;;;;5063729;28;20040;-57
2023/02/05 07:19:36;;;;;;;13.60;9.95;;;27.50;72.20;;;;;;5063822;28;20029;-58
2023/02/05 07:22:03;;;;;;;14.57;9.32;;;27.50;72.20;;;;;;5063552;28;20097;-60
2023/02/05 07:24:30;;;;;;;10.90;8.85;;;27.50;72.20;;;;;;5064114;28;20200;-59
2023/02/05 07:26:57;;;;;;;13.98;9.15;;;27.50;72.20;;;;;;5063403;28;20025;-61
2023/02/05 07:29:23;;;;;;;14.90;9.30;;;27.50;72.20;;;;;;5064033;28;20071;-61
2023/02/05 07:31:50;;;;;;;11.85;8.27;;;27.50;72.20;;;;;;5066698;28;20051;-65
2023/02/05 07:34:17;;;;;;;12.05;8.15;;;27.50;72.20;;;;;;5067453;28;20040;-64
2023/02/05 07:36:43;;;;;;;9.90;8.30;;;27.50;72.20;;;;;;5067803;28;20037;-63
2023/02/05 07:39:10;;;;;;;17.38;8.93;;;27.50;72.20;;;;;;5067765;28;20020;-58
2023/02/05 07:41:37;;;;;;;9.88;7.70;;;27.50;72.20;;;;;;5067389;28;20056;-59
2023/02/05 07:44:04;;;;;;;12.43;8.25;;;27.50;72.10;;;;;;5067532;28;20056;-63
2023/02/05 07:46:30;;;;;;;12.70;8.25;;;27.50;72.10;;;;;;5067402;28;20041;-58
2023/02/05 07:48:57;;;;;;;10.30;7.70;;;27.50;72.20;;;;;;5067223;28;20033;-60
2023/02/05 07:51:24;;;;;;;12.82;8.07;;;27.50;72.20;;;;;;5067443;28;20021;-60
2023/02/05 07:53:51;;;;;;;9.75;8.00;;;27.50;72.90;;;;;;5067192;28;20025;-59
2023/02/05 07:56:21;;;;;;;10.07;8.10;;;27.50;72.40;;;;;;5067051;28;20194;-58
2023/02/05 07:58:48;;;;;;;12.27;7.80;;;27.50;72.60;;;;;;5067375;28;20075;-58
2023/02/05 08:01:14;;;;;;;12.18;8.10;;;27.50;72.70;;;;;;5067008;28;20037;-61
2023/02/05 08:03:41;;;;;;;14.90;8.32;;;27.50;72.80;;;;;;5066985;28;20033;-58
2023/02/05 08:06:11;;;;;;;10.80;7.93;;;27.50;73.10;;;;;;5066890;28;20091;-58
2023/02/05 08:08:37;;;;;;;14.02;8.38;;;27.50;73.30;;;;;;5066942;28;20037;-59
2023/02/05 08:11:05;;;;;;;16.13;9.00;;;27.50;73.90;;;;;;5066800;28;20032;-57
2023/02/05 08:13:33;;;;;;;11.35;7.95;;;27.50;74.20;;;;;;5066880;28;20025;-63
2023/02/05 08:16:03;;;;;;;12.63;8.05;;;27.50;74.40;;;;;;5066858;28;20320;-59
2023/02/05 08:18:29;;;;;;;18.15;8.43;;;27.50;74.50;;;;;;5067059;28;20249;-60
2023/02/05 08:20:56;;;;;;;12.88;8.30;;;27.40;74.50;;;;;;5066581;28;20041;-57
2023/02/05 08:23:23;;;;;;;14.48;8.25;;;27.40;74.50;;;;;;5066765;28;20031;-58
2023/02/05 08:25:53;;;;;;;11.45;7.35;;;27.40;74.50;;;;;;5066825;28;20037;-59
2023/02/05 08:28:20;;;;;;;9.82;7.82;;;27.40;74.50;;;;;;5066433;28;21867;-59
2023/02/05 08:30:47;;;;;;;15.13;7.93;;;27.40;74.50;;;;;;5066594;28;20028;-60
2023/02/05 08:33:13;;;;;;;12.40;7.75;;;27.40;74.50;;;;;;5066221;28;20033;-59
2023/02/05 08:35:40;;;;;;;9.55;7.68;;;27.40;74.50;;;;;;5066575;28;20049;-58
2023/02/05 08:38:06;;;;;;;13.85;6.97;;;27.40;74.60;;;;;;5066262;28;20029;-64
2023/02/05 08:40:33;;;;;;;9.43;7.07;;;27.40;74.70;;;;;;5066246;28;20033;-64
2023/02/05 08:43:01;;;;;;;11.18;7.18;;;27.40;74.80;;;;;;5065011;28;20089;-64
2023/02/05 08:45:29;;;;;;;10.15;7.05;;;27.40;74.90;;;;;;5066132;28;20064;-66
2023/02/05 08:47:55;;;;;;;8.82;6.60;;;27.40;74.90;;;;;;5065922;28;20130;-64
2023/02/05 08:50:22;;;;;;;12.25;7.20;;;27.40;75.10;;;;;;5066578;28;20316;-59
2023/02/05 08:52:49;;;;;;;11.77;7.30;;;27.40;75.20;;;;;;5066108;28;20272;-58
2023/02/05 08:55:19;;;;;;;9.95;6.68;;;27.40;75.30;;;;;;5065806;28;20017;-57
2023/02/05 08:57:46;;;;;;;11.05;6.50;;;27.40;75.30;;;;;;5066187;28;20064;-59
2023/02/05 09:00:14;;;;;;;9.05;6.95;;;27.40;75.50;;;;;;5066423;28;20087;-61
2023/02/05 09:02:42;;;;;;;12.13;6.63;;;27.40;75.50;;;;;;5065765;28;20032;-60
2023/02/05 09:05:08;;;;;;;8.40;6.88;;;27.40;75.70;;;;;;5066257;28;20060;-60
2023/02/05 09:07:36;;;;;;;13.85;7.05;;;27.40;75.80;;;;;;5065782;28;20252;-61
2023/02/05 09:10:03;;;;;;;9.27;6.70;;;27.40;75.80;;;;;;5066046;28;20237;-60
2023/02/05 09:12:29;;;;;;;15.38;6.78;;;27.40;75.90;;;;;;5065688;28;20025;-62
2023/02/05 09:14:56;;;;;;;11.18;8.32;;;27.40;76.00;;;;;;5065611;28;20032;-60
2023/02/05 09:17:22;;;;;;;8.93;7.25;;;27.40;76.00;;;;;;5065477;28;20321;-60
2023/02/05 09:19:49;;;;;;;7.68;6.88;;;27.40;76.10;;;;;;5066001;28;20055;-60
2023/02/05 09:22:17;;;;;;;9.38;6.75;;;27.40;76.10;;;;;;5065500;28;20044;-61
2023/02/05 09:24:43;;;;;;;9.10;7.03;;;27.40;76.20;;;;;;5065643;28;20032;-64
2023/02/05 09:27:13;;;;;;;9.02;6.95;;;27.40;76.20;;;;;;5065337;28;20042;-65
2023/02/05 09:29:40;;;;;;;9.65;7.25;;;27.30;76.20;;;;;;5065594;28;20032;-61
2023/02/05 09:32:07;;;;;;;12.63;6.53;;;27.30;76.20;;;;;;5065129;28;20032;-59
2023/02/05 09:34:33;;;;;;;8.55;6.18;;;27.30;76.30;;;;;;5065399;28;20174;-59
2023/02/05 09:37:00;;;;;;;9.10;6.18;;;27.30;76.40;;;;;;5065257;28;20340;-62
2023/02/05 09:39:26;;;;;;;7.43;6.72;;;27.30;76.40;;;;;;5064902;28;20029;-59
2023/02/05 09:42:15;;;;;;;10.70;6.88;;;27.30;76.30;;;;;;5065109;28;20037;-60
2023/02/05 09:44:42;;;;;;;11.00;6.70;;;27.30;76.30;;;;;;5064860;28;20053;-58
2023/02/05 09:47:20;;;;;;;8.68;6.97;;;27.30;76.30;;;;;;5065325;28;20033;-60
2023/02/05 09:50:17;;;;;;;9.77;6.95;;;27.30;76.20;;;;;;5065247;28;20024;-60
2023/02/05 09:52:52;;;;;;;12.43;6.97;;;27.30;76.10;;;;;;5064958;28;20159;-59
2023/02/05 09:55:26;;;;;;;9.93;6.63;;;27.30;76.00;;;;;;5064668;28;20313;-60
2023/02/05 09:57:58;;;;;;;10.50;7.45;;;27.30;75.90;;;;;;5064757;28;20044;-58
2023/02/05 10:00:44;;;;;;;9.67;7.03;;;27.30;76.00;;;;;;5065037;28;20020;-58
2023/02/05 10:03:50;;;;;;;14.80;8.10;;;27.30;76.00;;;;;;5064829;28;20041;-59
2023/02/05 10:06:20;;;;;;;14.27;7.80;;;27.30;76.00;;;;;;5064705;28;20021;-62
2023/02/05 10:09:24;;;;;;;10.60;7.53;;;27.30;76.00;;;;;;5064557;28;20060;-56
2023/02/05 10:11:58;;;;;;;10.13;7.13;;;27.30;76.00;;;;;;5064959;28;20024;-59
2023/02/05 10:14:51;;;;;;;13.15;7.63;;;27.30;76.00;;;;;;5064782;28;20041;-60
2023/02/05 10:17:20;;;;;;;;;;;27.30;76.00;;;;;;5054242;28;20276;-58
2023/02/05 10:19:53;;;;;;;11.95;7.50;;;27.30;76.00;;;;;;5064706;28;19911;-59
2023/02/05 10:22:26;;;;;;;;;;;27.20;76.00;;;;;;5064754;28;20367;-56
2023/02/05 10:24:56;;;;;;;11.57;7.22;;;27.20;76.10;;;;;;5064294;28;20200;-58
2023/02/05 10:27:37;;;;;;;12.50;7.30;;;27.20;76.10;;;;;;5064246;28;20063;-59
2023/02/05 10:30:10;;;;;;;13.63;7.70;;;27.20;76.00;;;;;;5064690;28;20020;-58
2023/02/05 10:32:39;;;;;;;15.07;7.38;;;27.20;76.10;;;;;;5064287;28;20036;-59
2023/02/05 10:35:38;;;;;;;8.32;6.85;;;27.20;76.10;;;;;;5064516;28;20035;-53
2023/02/05 10:38:15;;;;;;;12.70;7.47;;;27.20;76.10;;;;;;5065182;28;20048;-60
2023/02/05 10:40:45;;;;;;;10.30;7.15;;;27.20;76.40;;;;;;5066844;28;20033;-60
2023/02/05 10:43:28;;;;;;;13.75;7.03;;;27.20;76.80;;;;;;5081212;28;20036;-58
2023/02/05 10:45:57;;;;;;;11.38;7.03;;;27.20;77.30;;;;;;5083825;28;20036;-57
2023/02/05 10:48:32;;;;;;;9.55;7.25;;;27.20;77.70;;;;;;5083076;28;20043;-59
2023/02/05 10:51:13;;;;;;;8.50;6.97;;;27.20;77.90;;;;;;5083872;28;20320;-59
2023/02/05 10:53:40;;;;;;;9.95;7.00;;;27.20;78.00;;;;;;5083939;28;20050;-60
2023/02/05 10:56:07;;;;;;;14.70;7.47;;;27.20;78.30;;;;;;5083867;28;20096;-59
2023/02/05 10:58:43;;;;;;;9.45;7.15;;;27.20;78.80;;;;;;5083919;28;20032;-60
2023/02/05 11:01:29;;;;;;;10.65;7.22;;;27.20;79.10;;;;;;5083731;28;20028;-58
2023/02/05 11:04:10;;;;;;;14.27;6.93;;;27.20;79.30;;;;;;5083861;28;20069;-59
2023/02/05 11:06:49;;;;;;;10.98;7.70;;;27.20;79.50;;;;;;5083048;28;20324;-56
2023/02/05 11:09:25;;;;;;;12.55;7.88;;;27.20;79.60;;;;;;5084311;28;20224;-56
2023/02/05 11:11:55;;;;;;;10.45;7.18;;;27.10;79.50;;;;;;5083959;28;20035;-57
2023/02/05 11:14:45;;;;;;;10.02;7.63;;;27.10;79.40;;;;;;5084636;28;20141;-59
2023/02/05 11:17:23;;;;;;;13.93;7.72;;;27.20;79.40;;;;;;5083667;28;20025;-57
2023/02/05 11:19:54;;;;;;;10.65;7.80;;;27.10;79.20;;;;;;5084498;28;20039;-59
2023/02/05 11:22:30;;;;;;;11.25;7.57;;;27.10;79.20;;;;;;5083728;28;20035;-59
2023/02/05 11:25:19;;;;;;;11.90;7.75;;;27.10;79.10;;;;;;5083047;28;20091;-58
2023/02/05 11:28:04;;;;;;;9.43;7.43;;;27.10;79.00;;;;;;5083679;28;20059;-57
2023/02/05 11:30:35;;;;;;;11.90;7.45;;;27.10;79.00;;;;;;5083841;28;20103;-61
2023/02/05 11:33:19;;;;;;;12.13;7.90;;;27.10;78.90;;;;;;5083220;28;20027;-58
2023/02/05 11:35:57;;;;;;;12.75;7.22;;;27.10;78.90;;;;;;5083992;28;20258;-58
2023/02/05 11:38:44;;;;;;;14.77;7.63;;;27.10;78.80;;;;;;5083412;28;20048;-59
2023/02/05 11:41:25;;;;;;;13.00;7.43;;;27.10;78.80;;;;;;5067918;28;20220;-61
2023/02/05 11:43:53;;;;;;;11.52;7.40;;;27.10;78.70;;;;;;5083464;28;20059;-58
2023/02/05 11:46:22;;;;;;;11.50;8.15;;;27.10;78.70;;;;;;5083702;28;20036;-61
2023/02/05 11:48:52;;;;;;;15.23;8.10;;;27.10;78.60;;;;;;5083544;28;20088;-58
2023/02/05 11:51:38;;;;;;;18.13;8.52;;;27.10;78.50;;;;;;5083593;28;20032;-59
2023/02/05 11:54:22;;;;;;;17.95;8.10;;;27.10;78.40;;;;;;5071740;28;20389;-56
2023/02/05 11:57:20;;;;;;;15.15;7.88;;;27.10;78.30;;;;;;5064134;28;20131;-57
2023/02/05 11:59:56;;;;;;;17.20;7.97;;;27.10;78.40;;;;;;5083720;28;20025;-58
2023/02/05 12:02:28;;;;;;;15.05;7.70;;;27.10;78.30;;;;;;5083553;28;20058;-57
2023/02/05 12:05:05;;;;;;;;;;;27.10;78.60;;;;;;5084147;28;20362;-57
2023/02/05 12:07:42;;;;;;;18.02;8.32;;;27.10;79.00;;;;;;5083254;28;20175;-58
2023/02/05 12:10:30;;;;;;;13.32;7.70;;;27.10;79.40;;;;;;5083062;28;20083;-57
2023/02/05 12:13:29;;;;;;;14.05;7.68;;;27.10;79.90;;;;;;5083100;28;20040;-57
2023/02/05 12:16:32;;;;;;;18.88;8.27;;;27.10;80.00;;;;;;5066054;28;20355;-58
2023/02/05 12:18:58;;;;;;;;;;;27.10;80.20;;;;;;5087266;28;20029;-58
2023/02/05 12:21:50;;;;;;;14.15;8.25;;;27.10;80.30;;;;;;5086602;28;20145;-56
2023/02/05 12:24:42;;;;;;;12.35;7.38;;;27.10;80.60;;;;;;5086818;28;20103;-58
2023/02/05 12:27:42;;;;;;;15.77;7.15;;;27.00;80.50;;;;;;5076823;28;20033;-57
2023/02/05 12:30:09;;;;;;;11.32;6.90;;;27.10;80.40;;;;;;5082426;28;20035;-55
2023/02/05 12:33:02;;;;;;;9.68;6.90;;;27.10;80.30;;;;;;5083007;28;20044;-55
2023/02/05 12:35:28;;;;;;;10.98;6.57;;;27.10;80.40;;;;;;5078121;28;20107;-57
2023/02/05 12:38:01;;;;;;;9.65;6.82;;;27.10;80.40;;;;;;5082244;28;20074;-58
2023/02/05 12:40:48;;;;;;;11.55;6.40;;;27.00;80.40;;;;;;5085304;28;20063;-58
2023/02/05 12:43:37;;;;;;;9.43;6.82;;;27.00;80.40;;;;;;5086355;28;20028;-59
2023/02/05 12:46:12;;;;;;;8.98;6.88;;;27.10;80.30;;;;;;5082792;28;20044;-60
2023/02/05 12:48:53;;;;;;;8.88;6.97;;;27.10;80.10;;;;;;5066336;28;20029;-58
2023/02/05 12:51:52;;;;;;;9.18;6.75;;;27.10;80.10;;;;;;5065965;28;20249;-56
2023/02/05 12:54:34;;;;;;;9.18;6.38;;;27.10;79.90;;;;;;5066142;28;20024;-57
2023/02/05 12:57:27;;;;;;;7.90;6.47;;;27.10;79.90;;;;;;5065996;28;20314;-56
2023/02/05 12:59:57;;;;;;;;;;;27.10;79.80;;;;;;5063887;28;20078;-56
2023/02/05 13:02:33;;;;;;;11.27;6.85;;;27.10;79.70;;;;;;5065821;28;19915;-56
2023/02/05 13:05:27;;;;;;;8.52;6.85;;;27.10;79.60;;;;;;5074593;28;20021;-58